Time;durP1;ratioP1;P1;durP2;ratioP2;P2;SDS_P1;SDS_P2;PMS_P1;PMS_P2;Temp;Humidity;BMP_temperature;BMP_pressure;BME280_temperature;BME280_humidity;BME280_pressure;Samples;Min_cycle;Max_cycle;Signal;HPM_P1;HPM_P2
2023/03/27 00:01:32;;;;;;;0.40;0.40;;;;;;;6.80;100.00;95081.41;5010248;28;102074;-65
2023/03/27 00:03:59;;;;;;;2.07;0.70;;;;;;;6.79;100.00;95079.81;5010353;28;103545;-65
2023/03/27 00:06:26;;;;;;;0.60;0.40;;;;;;;6.80;100.00;95083.22;5009777;28;103813;-65
2023/03/27 00:08:53;;;;;;;1.07;0.50;;;;;;;6.77;100.00;95091.69;5009948;28;102123;-65
2023/03/27 00:11:23;;;;;;;0.70;0.57;;;;;;;6.79;100.00;95084.28;5011631;28;102264;-65
2023/03/27 00:13:53;;;;;;;2.40;0.40;;;;;;;6.79;100.00;95084.28;5010800;28;102471;-65
2023/03/27 00:16:20;;;;;;;0.67;0.50;;;;;;;6.77;100.00;95086.41;5011514;28;101911;-65
2023/03/27 00:18:47;;;;;;;1.63;0.40;;;;;;;6.78;100.00;95088.00;5011829;28;105549;-65
2023/03/27 00:21:14;;;;;;;0.40;0.40;;;;;;;6.76;100.00;95085.59;5011388;28;101712;-65
2023/03/27 00:23:41;;;;;;;0.40;0.30;;;;;;;6.77;100.00;95081.13;5010965;28;102876;-65
2023/03/27 00:26:08;;;;;;;0.50;0.50;;;;;;;6.72;100.00;95083.75;5009500;28;105855;-65
2023/03/27 00:28:35;;;;;;;0.63;0.40;;;;;;;6.75;100.00;95088.50;5010099;28;101781;-65
2023/03/27 00:31:03;;;;;;;1.23;0.80;;;;;;;6.70;100.00;95077.94;5011081;28;102303;-65
2023/03/27 00:33:30;;;;;;;0.77;0.43;;;;;;;6.71;100.00;95082.16;5009266;28;105333;-65
2023/03/27 00:35:57;;;;;;;0.60;0.50;;;;;;;6.74;100.00;95079.00;5009685;28;101977;-65
2023/03/27 00:38:24;;;;;;;1.23;0.60;;;;;;;6.72;100.00;95081.09;5009742;28;105773;-65
2023/03/27 00:40:53;;;;;;;1.43;1.00;;;;;;;6.71;100.00;95082.16;5014057;28;102619;-65
2023/03/27 00:43:22;;;;;;;0.50;0.47;;;;;;;6.72;100.00;95083.75;5011050;28;102365;-65
2023/03/27 00:45:53;;;;;;;1.17;0.80;;;;;;;6.72;100.00;95078.47;5008940;28;104447;-65
2023/03/27 00:48:24;;;;;;;1.70;0.60;;;;;;;6.71;100.00;95079.53;5009794;28;101758;-65
2023/03/27 00:50:52;;;;;;;0.97;0.67;;;;;;;6.72;100.00;95083.75;5011038;28;102553;-65
2023/03/27 00:53:23;;;;;;;0.60;0.57;;;;;;;6.73;100.00;95077.41;5008875;28;104461;-65
2023/03/27 00:55:52;;;;;;;0.80;0.70;;;;;;;6.70;100.00;95070.78;5009252;28;101816;-65
2023/03/27 00:58:23;;;;;;;1.77;0.70;;;;;;;6.70;100.00;95075.28;5010822;28;102411;-65
2023/03/27 01:00:53;;;;;;;0.97;0.80;;;;;;;6.72;100.00;95070.53;5009069;28;105831;-65
2023/03/27 01:03:30;;;;;;;1.73;0.60;;;;;;;6.71;100.00;95076.88;5012898;28;101891;-65
2023/03/27 01:06:00;;;;;;;0.53;0.40;;;;;;;6.72;100.00;95073.19;5009820;28;102818;-65
2023/03/27 01:08:29;;;;;;;0.93;0.47;;;;;;;6.71;100.00;95071.59;5009229;28;101877;-65
2023/03/27 01:11:01;;;;;;;1.23;0.77;;;;;;;6.70;100.00;95070.00;5009245;28;104242;-65
2023/03/27 01:13:45;;;;;;;2.83;0.53;;;;;;;6.74;100.00;95079.00;5008795;28;104916;-65
2023/03/27 01:16:22;;;;;;;0.93;0.70;;;;;;;6.72;100.00;95073.19;5009232;28;101908;-65
2023/03/27 01:19:01;;;;;;;2.97;0.90;;;;;;;6.73;100.00;95080.03;5008492;28;104814;-65
2023/03/27 01:22:05;;;;;;;1.03;0.70;;;;;;;6.78;100.00;95074.78;5008377;28;105816;-65
2023/03/27 01:24:57;;;;;;;2.43;0.73;;;;;;;6.82;100.00;95078.50;5007198;28;102051;-65
2023/03/27 01:27:45;;;;;;;1.60;0.70;;;;;;;6.84;100.00;95073.75;5011930;28;105272;-65
2023/03/27 01:30:18;;;;;;;1.20;0.60;;;;;;;6.85;100.00;95080.63;5008903;28;102190;-65
2023/03/27 01:33:31;;;;;;;0.90;0.60;;;;;;;6.85;100.00;95080.63;5010417;28;102893;-65
2023/03/27 01:36:33;;;;;;;1.47;0.63;;;;;;;6.87;100.00;95075.88;4992485;28;105391;-65
2023/03/27 01:39:25;;;;;;;0.40;0.40;;;;;;;6.88;100.00;95075.59;5008463;28;101692;-65
2023/03/27 01:41:56;;;;;;;1.57;0.80;;;;;;;6.89;100.00;95073.78;5008681;28;104913;-65
2023/03/27 01:44:32;;;;;;;0.90;0.50;;;;;;;6.88;100.00;95066.91;5008086;28;106003;-65
2023/03/27 01:47:06;;;;;;;0.40;0.30;;;;;;;6.91;100.00;95063.72;5008832;28;102089;-65
2023/03/27 01:49:39;;;;;;;1.20;0.50;;;;;;;6.90;100.00;95070.06;5008566;28;104746;-65
2023/03/27 01:52:12;;;;;;;0.50;0.50;;;;;;;6.92;100.00;95070.63;5011358;28;105700;-65
2023/03/27 01:54:42;;;;;;;0.80;0.50;;;;;;;6.90;100.00;95073.53;5008774;28;105332;-65
2023/03/27 01:57:19;;;;;;;0.57;0.50;;;;;;;6.94;100.00;95071.16;5008172;28;106133;-65
2023/03/27 01:59:52;;;;;;;0.83;0.60;;;;;;;6.93;100.00;95077.50;5008769;28;101918;-65
2023/03/27 02:02:24;;;;;;;1.00;0.30;;;;;;;6.94;100.00;95079.88;5008405;28;103787;-65
2023/03/27 02:04:55;;;;;;;0.40;0.40;;;;;;;6.96;100.00;95084.88;5008021;28;104233;-65
2023/03/27 02:07:29;;;;;;;0.40;0.40;;;;;;;6.91;100.00;95074.28;5008625;28;102046;-65
2023/03/27 02:10:01;;;;;;;1.03;0.40;;;;;;;6.89;100.00;95086.97;5008517;28;105415;-65
2023/03/27 02:12:32;;;;;;;1.37;0.50;;;;;;;6.83;100.00;95080.09;5011360;28;105157;-65
2023/03/27 02:15:06;;;;;;;0.70;0.50;;;;;;;6.76;100.00;95080.31;5008520;28;104803;-65
2023/03/27 02:17:38;;;;;;;1.03;0.60;;;;;;;6.71;100.00;95068.94;5007324;28;104962;-65
2023/03/27 02:20:13;;;;;;;0.57;0.30;;;;;;;6.69;100.00;95079.78;5009218;28;101885;-65
2023/03/27 02:22:40;;;;;;;1.00;0.50;;;;;;;6.66;100.00;95080.28;5008243;28;105795;-65
2023/03/27 02:25:25;;;;;;;0.60;0.60;;;;;;;6.62;100.00;95075.78;5007727;28;105981;-65
2023/03/27 02:28:05;;;;;;;0.50;0.50;;;;;;;6.63;100.00;95070.25;5007115;28;102107;-65
2023/03/27 02:30:37;;;;;;;0.60;0.60;;;;;;;6.58;100.00;95078.13;5008300;28;105341;-65
2023/03/27 02:33:22;;;;;;;1.70;0.70;;;;;;;6.58;100.00;95077.31;5007502;28;105121;-65
2023/03/27 02:36:02;;;;;;;0.93;0.63;;;;;;;6.58;100.00;95078.13;5011794;28;101976;-65
2023/03/27 02:38:40;;;;;;;1.47;0.77;;;;;;;6.56;100.00;95074.97;5007502;28;104063;-65
2023/03/27 02:41:19;;;;;;;0.83;0.40;;;;;;;6.55;100.00;95089.19;5008202;28;101925;-65
2023/03/27 02:43:57;;;;;;;1.50;0.80;;;;;;;6.53;100.00;95085.22;5006375;28;102125;-65
2023/03/27 02:46:45;;;;;;;0.50;0.50;;;;;;;6.52;100.00;95086.28;5007409;28;105030;-65
2023/03/27 02:49:18;;;;;;;1.10;1.00;;;;;;;6.47;100.00;95087.06;5008160;28;102654;-65
2023/03/27 02:51:49;;;;;;;0.60;0.60;;;;;;;6.37;100.00;95091.47;5009801;28;104954;-65
2023/03/27 02:54:20;;;;;;;0.57;0.57;;;;;;;6.32;100.00;95102.03;5010456;28;105178;-65
2023/03/27 02:56:54;;;;;;;0.60;0.60;;;;;;;6.26;100.00;95095.09;5013091;28;101737;-65
2023/03/27 02:59:34;;;;;;;1.60;0.60;;;;;;;6.22;100.00;95102.72;5014139;28;104883;-65
2023/03/27 03:02:02;;;;;;;0.83;0.77;;;;;;;6.20;100.00;95115.41;5010797;28;101950;-65
2023/03/27 03:04:41;;;;;;;1.23;0.80;;;;;;;6.11;100.00;95116.91;5011294;28;104869;-65
2023/03/27 03:07:14;;;;;;;1.30;0.50;;;;;;;6.07;100.00;95118.47;5011998;28;102721;-65
2023/03/27 03:09:43;;;;;;;1.03;1.00;;;;;;;5.93;100.00;95148.97;5011302;28;102431;-65
2023/03/27 03:12:12;;;;;;;1.80;0.63;;;;;;;5.91;100.00;95139.72;5011148;28;105109;-65
2023/03/27 03:14:43;;;;;;;0.47;0.40;;;;;;;5.83;100.00;95137.56;5010407;28;105369;-65
2023/03/27 03:17:11;;;;;;;0.50;0.50;;;;;;;5.76;100.00;95143.00;5010561;28;102045;-65
2023/03/27 03:19:38;;;;;;;0.43;0.43;;;;;;;5.66;100.00;95136.81;5012339;28;102820;-65
2023/03/27 03:22:06;;;;;;;1.30;0.63;;;;;;;5.59;100.00;95142.31;5013772;28;105793;-65
2023/03/27 03:24:36;;;;;;;1.27;0.50;;;;;;;5.51;100.00;95144.59;5010584;28;104835;-65
2023/03/27 03:27:04;;;;;;;0.80;0.80;;;;;;;5.55;100.00;95140.41;5010289;28;105858;-65
2023/03/27 03:29:43;;;;;;;1.13;0.90;;;;;;;5.50;100.00;95138.50;5010942;28;101824;-65
2023/03/27 03:32:21;;;;;;;0.97;0.80;;;;;;;5.44;100.00;95142.16;5011053;28;104898;-65
2023/03/27 03:34:51;;;;;;;0.70;0.70;;;;;;;5.46;100.00;95141.91;5010147;28;105156;-65
2023/03/27 03:37:18;;;;;;;0.63;0.60;;;;;;;5.43;100.00;95145.03;5010651;28;102260;-65
2023/03/27 03:39:45;;;;;;;0.70;0.70;;;;;;;5.38;100.00;95145.78;5010759;28;105395;-65
2023/03/27 03:42:13;;;;;;;0.80;0.70;;;;;;;5.33;100.00;95143.09;5009875;28;104858;-65
2023/03/27 03:44:43;;;;;;;1.00;1.00;;;;;;;5.32;100.00;95141.50;5013794;28;101883;-65
2023/03/27 03:47:17;;;;;;;0.87;0.87;;;;;;;5.27;100.00;95157.25;5010032;28;105297;-65
2023/03/27 03:49:45;;;;;;;0.70;0.70;;;;;;;5.30;100.00;95153.34;5010426;28;101990;-65
2023/03/27 03:52:12;;;;;;;0.60;0.60;;;;;;;5.32;100.00;95154.69;5010298;28;105229;-66
2023/03/27 03:54:39;;;;;;;0.80;0.80;;;;;;;5.33;100.00;95161.53;5011218;28;102648;-66
2023/03/27 03:57:07;;;;;;;0.77;0.77;;;;;;;5.32;100.00;95159.16;5010374;28;102164;-66
2023/03/27 03:59:34;;;;;;;0.90;0.80;;;;;;;5.32;100.00;95161.78;5010323;28;104799;-66
2023/03/27 04:02:40;;;;;;;0.70;0.70;;;;;;;5.33;100.00;95166.00;5005472;28;102919;-66
2023/03/27 04:05:10;;;;;;;0.90;0.90;;;;;;;5.33;100.00;95174.72;4992430;28;101875;-66
2023/03/27 04:07:39;;;;;;;0.70;0.70;;;;;;;5.30;100.00;95180.47;5012390;28;102582;-66
2023/03/27 04:10:30;;;;;;;0.77;0.77;;;;;;;5.31;100.00;95174.19;4998901;28;101884;-66
2023/03/27 04:12:58;;;;;;;0.70;0.70;;;;;;;5.32;100.00;95177.59;5009278;28;104477;-66
2023/03/27 04:15:46;;;;;;;0.60;0.60;;;;;;;5.34;100.00;95180.78;4991639;28;104448;-66
2023/03/27 04:18:31;;;;;;;0.50;0.50;;;;;;;5.27;100.00;95195.97;4991714;28;102308;-66
2023/03/27 04:20:59;;;;;;;0.30;0.30;;;;;;;5.27;100.00;95185.44;5009487;28;102061;-66
2023/03/27 04:23:32;;;;;;;0.50;0.50;;;;;;;5.26;100.00;95183.84;4991487;28;105424;-66
2023/03/27 04:26:02;;;;;;;0.50;0.50;;;;;;;5.25;100.00;95184.91;4992248;28;101868;-66
2023/03/27 04:28:50;;;;;;;0.57;0.57;;;;;;;5.21;100.00;95197.78;5011055;28;103797;-66
2023/03/27 04:31:38;;;;;;;0.60;0.60;;;;;;;5.22;100.00;95190.66;4997940;28;101946;-66
2023/03/27 04:34:26;;;;;;;0.30;0.30;;;;;;;5.19;100.00;95201.69;5006422;28;102072;-66
2023/03/27 04:37:06;;;;;;;0.30;0.30;;;;;;;5.16;100.00;95191.63;5001739;28;105286;-66
2023/03/27 04:39:38;;;;;;;1.10;1.10;;;;;;;5.16;100.00;95204.81;5009845;28;101819;-66
2023/03/27 04:42:06;;;;;;;0.90;0.80;;;;;;;5.09;100.00;95202.38;5009513;28;104896;-66
2023/03/27 04:44:33;;;;;;;0.60;0.60;;;;;;;5.07;100.00;95206.28;5032806;27;105087;-66
2023/03/27 04:47:01;;;;;;;0.60;0.60;;;;;;;5.04;100.00;95217.31;5018387;28;101802;-66
2023/03/27 04:49:37;;;;;;;1.07;0.63;;;;;;;5.01;100.00;95229.13;5009065;28;104938;-66
2023/03/27 04:52:14;;;;;;;0.40;0.40;;;;;;;4.93;100.00;95220.84;5011946;28;103950;-66
2023/03/27 04:54:43;;;;;;;0.40;0.40;;;;;;;4.83;100.00;95239.97;5009498;28;105009;-66
2023/03/27 04:57:10;;;;;;;0.50;0.50;;;;;;;4.81;100.00;95235.97;5008817;28;105377;-66
2023/03/27 04:59:38;;;;;;;0.80;0.80;;;;;;;4.75;100.00;95247.47;5009354;28;101916;-66
2023/03/27 05:02:25;;;;;;;0.80;0.70;;;;;;;4.74;100.00;95248.53;5007970;28;102056;-66
2023/03/27 05:05:01;;;;;;;0.50;0.50;;;;;;;4.66;100.00;95251.53;5008694;28;105314;-66
2023/03/27 05:07:33;;;;;;;0.43;0.40;;;;;;;4.58;100.00;95260.63;5009333;28;102077;-64
2023/03/27 05:10:02;;;;;;;0.50;0.50;;;;;;;4.55;100.00;95265.59;5009401;28;105077;-64
2023/03/27 05:12:30;;;;;;;1.77;1.67;;;;;;;4.46;100.00;95275.72;5008490;28;105221;-64
2023/03/27 05:15:05;;;;;;;1.30;1.30;;;;;;;4.43;100.00;95270.16;5011801;28;101897;-64
2023/03/27 05:17:44;;;;;;;0.70;0.70;;;;;;;4.32;100.00;95289.44;5008459;28;105292;-64
2023/03/27 05:20:16;;;;;;;0.83;0.83;;;;;;;4.25;100.00;95283.53;5008618;28;101939;-64
2023/03/27 05:22:44;;;;;;;0.50;0.50;;;;;;;4.15;100.00;95286.00;5009084;28;104855;-64
2023/03/27 05:25:32;;;;;;;0.50;0.47;;;;;;;4.11;100.00;95301.47;5009284;28;103436;-64
2023/03/27 05:28:02;;;;;;;0.73;0.50;;;;;;;4.08;100.00;95306.38;5009132;28;102169;-64
2023/03/27 05:30:32;;;;;;;0.80;0.80;;;;;;;4.10;100.00;95312.22;5008937;28;105752;-64
2023/03/27 05:33:17;;;;;;;0.50;0.50;;;;;;;4.04;100.00;95329.72;5008424;28;105055;-64
2023/03/27 05:35:49;;;;;;;1.23;1.13;;;;;;;4.09;100.00;95331.66;5009054;28;101910;-64
2023/03/27 05:38:17;;;;;;;1.00;0.80;;;;;;;4.06;100.00;95338.19;5011719;28;105352;-64
2023/03/27 05:40:55;;;;;;;0.70;0.70;;;;;;;4.03;100.00;95345.72;5008796;28;101878;-64
2023/03/27 05:43:23;;;;;;;0.73;0.60;;;;;;;4.00;100.00;95356.72;5008626;28;105454;-64
2023/03/27 05:45:50;;;;;;;0.80;0.80;;;;;;;4.03;100.00;95356.25;5007027;28;105810;-64
2023/03/27 05:48:17;;;;;;;0.60;0.60;;;;;;;4.05;100.00;95364.72;5007190;28;102022;-64
2023/03/27 05:50:46;;;;;;;1.40;1.30;;;;;;;4.01;100.00;95369.66;5007593;28;104917;-64
2023/03/27 05:53:21;;;;;;;1.73;1.23;;;;;;;4.02;100.00;95375.69;5039090;27;105383;-64
2023/03/27 05:56:02;;;;;;;2.83;1.90;;;;;;;4.01;100.00;95389.88;5007265;28;102053;-64
2023/03/27 05:58:34;;;;;;;1.10;1.00;;;;;;;3.96;100.00;95401.13;5005559;28;104729;-64
2023/03/27 06:01:02;;;;;;;1.47;1.37;;;;;;;3.97;100.00;95415.84;5011485;28;105921;-64
2023/03/27 06:03:30;;;;;;;1.50;1.40;;;;;;;4.04;100.00;95419.16;5008188;28;105443;-64
2023/03/27 06:06:07;;;;;;;1.90;1.67;;;;;;;4.02;100.00;95436.19;5007976;28;105141;-64
2023/03/27 06:08:35;;;;;;;0.80;0.80;;;;;;;4.01;100.00;95443.31;5008615;28;101903;-64
2023/03/27 06:11:08;;;;;;;1.27;1.20;;;;;;;4.03;100.00;95457.00;5008312;28;105007;-64
2023/03/27 06:13:50;;;;;;;1.50;1.40;;;;;;;4.09;100.00;95471.09;5009095;28;103026;-64
2023/03/27 06:16:21;;;;;;;1.00;1.00;;;;;;;4.10;100.00;95472.69;5008495;28;101891;-64
2023/03/27 06:19:15;;;;;;;1.20;1.20;;;;;;;4.14;100.00;95485.13;4999772;28;102337;-64
2023/03/27 06:21:51;;;;;;;1.50;1.10;;;;;;;4.17;100.00;95495.19;5007742;28;105681;-64
2023/03/27 06:24:18;;;;;;;1.03;1.03;;;;;;;4.18;100.00;95509.13;5012748;28;101685;-64
2023/03/27 06:26:45;;;;;;;0.90;0.90;;;;;;;4.06;100.00;95519.69;5010762;28;105393;-64
2023/03/27 06:29:12;;;;;;;0.70;0.70;;;;;;;4.02;100.00;95526.44;5011798;28;101890;-64
2023/03/27 06:31:46;;;;;;;0.80;0.80;;;;;;;4.01;100.00;95531.91;5011823;28;105047;-64
2023/03/27 06:34:25;;;;;;;0.77;0.77;;;;;;;3.98;100.00;95553.44;5010682;28;104503;-64
2023/03/27 06:37:23;;;;;;;0.80;0.80;;;;;;;3.86;100.00;95571.03;5012552;28;102955;-64
2023/03/27 06:39:50;;;;;;;1.00;0.90;;;;;;;3.79;100.00;95571.16;5011389;28;104945;-64
2023/03/27 06:42:17;;;;;;;1.50;1.40;;;;;;;3.75;100.00;95590.22;5011071;28;105599;-64
2023/03/27 06:44:51;;;;;;;0.93;0.93;;;;;;;3.65;100.00;95593.41;5014503;28;101963;-64
2023/03/27 06:47:37;;;;;;;2.80;2.43;;;;;;;3.65;100.00;95609.19;5009551;28;102179;-64
2023/03/27 06:50:24;;;;;;;1.50;1.40;;;;;;;3.56;100.00;95622.91;5011343;28;101890;-64
2023/03/27 06:52:55;;;;;;;1.33;1.30;;;;;;;3.51;100.00;95626.22;5011212;28;103567;-64
2023/03/27 06:55:39;;;;;;;1.80;1.13;;;;;;;3.37;100.00;95640.56;5010656;28;104457;-64
2023/03/27 06:58:07;;;;;;;1.10;1.10;;;;;;;3.40;100.00;95653.25;5011356;28;102171;-64
2023/03/27 07:00:37;;;;;;;1.67;1.57;;;;;;;3.40;100.00;95658.50;5011484;28;105721;-64
2023/03/27 07:03:27;;;;;;;2.63;2.30;;;;;;;3.44;100.00;95657.00;5000417;28;102573;-64
2023/03/27 07:06:12;;;;;;;13.13;9.50;;;;;;;3.51;100.00;95672.69;5009480;28;102070;-64
2023/03/27 07:08:47;;;;;;;2.70;2.50;;;;;;;3.51;100.00;95688.47;5013749;28;104523;-64
2023/03/27 07:11:14;;;;;;;1.73;1.63;;;;;;;3.55;100.00;95690.41;5011021;28;101852;-64
2023/03/27 07:13:48;;;;;;;1.77;1.67;;;;;;;3.59;100.00;95699.47;5010898;28;104808;-64
2023/03/27 07:16:23;;;;;;;8.40;5.33;;;;;;;3.55;100.00;95695.69;5010267;28;105406;-64
2023/03/27 07:18:49;;;;;;;2.80;2.17;;;;;;;3.57;100.00;95713.88;5010366;28;102085;-64
2023/03/27 07:21:16;;;;;;;1.67;1.57;;;;;;;3.57;100.00;95727.00;5011171;28;104789;-64
2023/03/27 07:23:44;;;;;;;1.80;1.70;;;;;;;3.56;100.00;95738.53;5010138;28;105490;-64
2023/03/27 07:26:16;;;;;;;1.70;1.60;;;;;;;3.55;100.00;95736.94;5044569;27;101911;-64
2023/03/27 07:29:04;;;;;;;1.73;1.60;;;;;;;3.62;100.00;95751.63;5011935;28;103690;-64
2023/03/27 07:31:32;;;;;;;1.30;1.30;;;;;;;3.57;100.00;95761.16;5013511;28;105411;-64
2023/03/27 07:33:58;;;;;;;1.63;1.53;;;;;;;3.55;100.00;95768.50;5010626;28;104097;-64
2023/03/27 07:36:45;;;;;;;1.30;1.20;;;;;;;3.56;100.00;95781.38;5010583;28;103512;-64
2023/03/27 07:39:12;;;;;;;2.33;1.43;;;;;;;3.58;100.00;95786.44;5010573;28;101869;-64
2023/03/27 07:41:41;;;;;;;1.10;1.10;;;;;;;3.59;100.00;95791.47;5044114;27;104996;-64
2023/03/27 07:44:21;;;;;;;1.53;1.43;;;;;;;3.63;100.00;95790.00;5009832;28;105153;-64
2023/03/27 07:46:57;;;;;;;1.67;1.57;;;;;;;3.56;100.00;95802.41;5010671;28;101806;-64
2023/03/27 07:49:24;;;;;;;1.60;1.50;;;;;;;3.31;100.00;95814.03;5010643;28;105146;-64
2023/03/27 07:51:52;;;;;;;1.50;1.13;;;;;;;3.08;100.00;95824.41;5009696;28;105252;-64
2023/03/27 07:54:20;;;;;;;1.37;1.27;;;;;;;3.10;100.00;95817.09;5013737;28;101947;-64
2023/03/27 07:56:53;;;;;;;1.43;1.33;;;;;;;3.07;100.00;95836.72;5043682;27;105127;-64
2023/03/27 07:59:32;;;;;;;1.10;1.10;;;;;;;3.07;100.00;95843.81;5008753;28;101710;-64
2023/03/27 08:02:07;;;;;;;1.43;1.37;;;;;;;3.16;100.00;95843.31;5010479;28;104926;-64
2023/03/27 08:04:39;;;;;;;1.50;1.40;;;;;;;3.22;100.00;95858.19;5043234;27;104782;-64
2023/03/27 08:07:08;;;;;;;2.60;1.50;;;;;;;3.21;100.00;95856.59;5010313;28;101769;-64
2023/03/27 08:09:37;;;;;;;4.37;1.67;;;;;;;3.11;100.00;95866.78;5010208;28;104670;-64
2023/03/27 08:12:06;;;;;;;2.73;1.97;;;;;;;3.03;100.00;95868.91;5009693;28;105209;-64
2023/03/27 08:14:39;;;;;;;1.87;1.60;;;;;;;2.85;100.00;95889.88;5010182;28;101857;-64
2023/03/27 08:17:18;;;;;;;1.80;1.70;;;;;;;2.79;100.00;95891.50;5012793;28;105260;-64
2023/03/27 08:19:45;;;;;;;1.67;1.57;;;;;;;2.70;100.00;95887.56;5009653;28;102065;-64
2023/03/27 08:22:13;;;;;;;1.90;1.70;;;;;;;2.62;100.00;95895.69;5009903;28;105220;-64
2023/03/27 08:25:08;;;;;;;1.90;1.80;;;;;;;2.73;100.00;95900.25;5009994;27;103963;-64
2023/03/27 08:27:37;;;;;;;2.30;2.10;;;;;;;2.75;100.00;95911.34;5010189;28;102071;-64
2023/03/27 08:30:06;;;;;;;2.33;2.00;;;;;;;2.79;100.00;95914.34;5009969;28;105530;-64
2023/03/27 08:32:39;;;;;;;2.83;2.10;;;;;;;2.84;100.00;95927.66;5009460;28;103983;-64
2023/03/27 08:35:09;;;;;;;1.40;1.30;;;;;;;2.86;100.00;95925.59;5009694;28;101752;-64
2023/03/27 08:37:36;;;;;;;1.57;1.47;;;;;;;2.92;100.00;95941.31;5011035;28;102263;-64
2023/03/27 08:40:36;;;;;;;1.93;1.73;;;;;;;2.99;100.00;95936.81;5012230;28;102100;-64
2023/03/27 08:43:28;;;;;;;2.90;1.97;;;;;;;2.97;100.00;95943.28;5010757;28;102645;-64
2023/03/27 08:46:00;;;;;;;3.33;1.87;;;;;;;2.95;100.00;95963.72;5010391;28;103036;-64
2023/03/27 08:48:32;;;;;;;2.03;1.57;;;;;;;2.98;100.00;95960.66;5008768;28;101851;-64
2023/03/27 08:51:04;;;;;;;1.53;1.20;;;;;;;2.95;100.00;95961.09;5043217;27;104199;-64
2023/03/27 08:53:37;;;;;;;1.60;1.50;;;;;;;2.98;100.00;95966.72;5008815;28;105395;-64
2023/03/27 08:56:06;;;;;;;1.47;1.37;;;;;;;2.98;100.00;95977.22;5043346;27;102129;-64
2023/03/27 08:58:41;;;;;;;1.13;1.13;;;;;;;2.96;100.00;95988.97;5009396;28;104878;-64
2023/03/27 09:01:37;;;;;;;1.53;1.43;;;;;;;2.98;100.00;96000.03;5012379;28;105415;-64
2023/03/27 09:04:21;;;;;;;1.00;1.00;;;;;;;2.70;100.00;96013.56;5009350;28;104507;-64
2023/03/27 09:07:01;;;;;;;2.40;1.40;;;;;;;2.52;100.00;96018.69;5042585;27;105028;-64
2023/03/27 09:09:41;;;;;;;2.60;1.90;;;;;;;2.46;100.00;96043.16;5042638;27;101792;-64
2023/03/27 09:12:23;;;;;;;3.60;3.00;;;;;;;2.35;100.00;96038.53;5009350;28;104539;-64
2023/03/27 09:14:56;;;;;;;4.00;2.93;;;;;;;2.35;100.00;96037.75;5008757;28;105506;-64
2023/03/27 09:17:30;;;;;;;5.53;2.90;;;;;;;2.33;100.00;96034.53;5042686;27;101762;-64
2023/03/27 09:20:11;;;;;;;5.63;3.57;;;;;;;2.36;100.00;96047.22;5008549;28;104746;-64
2023/03/27 09:22:44;;;;;;;20.27;10.97;;;;;;;2.36;100.00;96060.34;5042162;27;105489;-64
2023/03/27 09:25:22;;;;;;;5.93;3.90;;;;;;;2.30;100.00;96051.47;5011601;28;102103;-64
2023/03/27 09:28:19;;;;;;;4.67;3.27;;;;;;;2.10;100.00;96063.88;5009906;27;103404;-64
2023/03/27 09:30:56;;;;;;;6.67;3.50;;;;;;;2.21;100.00;96057.16;5042621;27;101850;-64
2023/03/27 09:33:31;;;;;;;6.77;3.60;;;;;;;2.40;100.00;96066.81;5008835;28;104377;-64
2023/03/27 09:35:59;;;;;;;6.50;3.47;;;;;;;2.30;100.00;96074.31;5009696;28;102492;-64
2023/03/27 09:38:32;;;;;;;6.33;3.60;;;;;;;2.43;100.00;96076.88;5042820;27;101932;-64
2023/03/27 09:41:03;;;;;;;6.47;4.00;;;;;;;2.57;100.00;96086.31;5008764;28;104544;-64
2023/03/27 09:43:39;;;;;;;6.57;3.60;;;;;;;2.64;100.00;96081.84;5008192;28;105246;-64
2023/03/27 09:46:09;;;;;;;4.73;3.47;;;;;;;2.82;100.00;96095.91;5008816;28;101882;-64
2023/03/27 09:48:42;;;;;;;4.97;3.47;;;;;;;2.90;100.00;96094.84;5045302;27;104990;-64
2023/03/27 09:51:37;;;;;;;4.80;3.60;;;;;;;3.09;100.00;96088.66;5008706;28;101896;-64
2023/03/27 09:54:06;;;;;;;4.53;3.53;;;;;;;3.12;100.00;96094.31;5008248;28;105364;-64
2023/03/27 09:56:41;;;;;;;6.00;3.67;;;;;;;3.12;100.00;96098.78;5042043;27;105373;-64
2023/03/27 09:59:12;;;;;;;6.27;3.47;;;;;;;3.15;100.00;96114.09;5008731;28;101772;-64
2023/03/27 10:01:46;;;;;;;5.67;2.83;;;;;;;3.00;100.00;96116.22;5045100;27;105578;-64
2023/03/27 10:04:19;;;;;;;4.77;3.23;;;;;;;3.05;100.00;96121.63;5011451;28;105391;-64
2023/03/27 10:06:58;;;;;;;4.20;3.30;;;;;;;3.04;100.00;96122.63;5013562;28;101687;-64
2023/03/27 10:09:36;;;;;;;6.27;3.90;;;;;;;2.67;100.00;96150.47;5012147;28;104922;-64
2023/03/27 10:12:16;;;;;;;4.60;3.53;;;;;;;2.38;100.00;96158.03;5048711;27;105358;-64
2023/03/27 10:14:46;;;;;;;7.23;3.80;;;;;;;2.27;100.00;96150.78;5012056;28;103761;-64
2023/03/27 10:17:25;;;;;;;4.80;3.90;;;;;;;2.18;100.00;96152.81;5011120;28;105032;-64
2023/03/27 10:20:07;;;;;;;4.77;3.60;;;;;;;2.16;100.00;96146.16;5011796;28;101838;-64
2023/03/27 10:22:39;;;;;;;4.93;3.93;;;;;;;2.15;100.00;96161.09;5011527;28;104508;-64
2023/03/27 10:25:16;;;;;;;5.10;4.40;;;;;;;2.10;100.00;96162.72;5045025;27;105821;-64
2023/03/27 10:28:18;;;;;;;8.77;3.80;;;;;;;1.97;100.00;96166.13;5007567;28;102084;-64
2023/03/27 10:31:07;;;;;;;4.70;3.43;;;;;;;1.93;100.00;96164.94;5010177;28;102204;-64
2023/03/27 10:33:52;;;;;;;5.67;4.20;;;;;;;1.87;100.00;96175.44;5010990;28;104992;-64
2023/03/27 10:36:54;;;;;;;4.90;4.10;;;;;;;1.86;100.00;96173.81;5014271;28;101721;-64
2023/03/27 10:39:27;;;;;;;5.67;4.60;;;;;;;2.00;100.00;96173.63;5011113;28;104637;-64
2023/03/27 10:42:10;;;;;;;7.40;5.20;;;;;;;2.10;100.00;96181.06;5011784;28;101881;-64
2023/03/27 10:44:44;;;;;;;6.30;4.77;;;;;;;2.22;100.00;96176.81;5011667;28;105284;-64
2023/03/27 10:47:18;;;;;;;7.00;5.33;;;;;;;2.31;100.00;96186.09;5044772;27;104340;-64
2023/03/27 10:49:51;;;;;;;9.97;6.13;;;;;;;2.38;100.00;96189.50;5044849;27;101857;-64
2023/03/27 10:52:36;;;;;;;7.00;5.03;;;;;;;2.35;100.00;96193.34;5011349;28;104450;-64
2023/03/27 10:55:22;;;;;;;7.03;5.23;;;;;;;2.22;100.00;96190.75;5044433;27;105492;-64
2023/03/27 10:57:53;;;;;;;11.33;5.77;;;;;;;2.43;100.00;96200.19;5014719;28;101895;-64
2023/03/27 11:00:33;;;;;;;8.67;6.03;;;;;;;2.42;100.00;96203.84;5010636;28;104941;-64
2023/03/27 11:03:11;;;;;;;6.37;5.53;;;;;;;2.41;100.00;96195.16;5011126;28;101905;-64
2023/03/27 11:05:43;;;;;;;7.30;6.07;;;;;;;2.55;100.00;96198.56;5044994;27;104732;-65
2023/03/27 11:08:24;;;;;;;8.97;5.67;;;;;;;2.50;100.00;96201.81;5010703;28;104960;-64
2023/03/27 11:10:52;;;;;;;9.73;6.10;;;;;;;2.66;100.00;96205.78;5011030;28;101787;-64
2023/03/27 11:13:30;;;;;;;8.90;6.27;;;;;;;2.68;100.00;96222.16;5010213;28;103633;-64
2023/03/27 11:16:14;;;;;;;9.20;6.53;;;;;;;2.71;100.00;96213.88;5010294;28;105135;-64
2023/03/27 11:19:29;;;;;;;6.73;6.07;;;;;;;2.71;100.00;96229.63;5011296;28;103048;-64
2023/03/27 11:22:32;;;;;;;6.67;6.03;;;;;;;2.68;100.00;96222.97;5013542;27;102256;-64
2023/03/27 11:25:09;;;;;;;8.60;5.63;;;;;;;2.61;100.00;96218.72;5044586;27;101814;-64
2023/03/27 11:27:41;;;;;;;13.53;7.97;;;;;;;2.88;100.00;96218.47;5010658;28;104591;-64
2023/03/27 11:30:27;;;;;;;9.13;5.97;;;;;;;3.02;100.00;96217.44;5010135;28;105049;-64
2023/03/27 11:33:08;;;;;;;9.80;6.63;;;;;;;3.26;100.00;96221.16;5044510;27;101812;-64
2023/03/27 11:35:40;;;;;;;11.07;6.07;;;;;;;3.46;100.00;96221.88;5010911;28;104895;-64
2023/03/27 11:38:36;;;;;;;8.77;6.57;;;;;;;3.59;100.00;96233.13;5010909;28;103690;-64
2023/03/27 11:41:04;;;;;;;8.50;6.20;;;;;;;3.86;100.00;96220.59;5010526;28;102126;-64
2023/03/27 11:43:40;;;;;;;8.60;6.53;;;;;;;3.97;100.00;96226.00;5012135;28;102358;-64
2023/03/27 11:46:35;;;;;;;11.20;6.50;;;;;;;3.95;100.00;96211.44;5013401;28;103719;-64
2023/03/27 11:49:19;;;;;;;17.87;6.40;;;;;;;4.03;100.00;96221.69;5010561;28;105482;-64
2023/03/27 11:52:01;;;;;;;9.57;5.77;;;;;;;3.91;100.00;96218.97;5043656;27;105489;-64
2023/03/27 11:54:47;;;;;;;9.30;6.17;;;;;;;4.01;100.00;96221.13;5043884;27;101915;-64
2023/03/27 11:57:23;;;;;;;10.53;5.67;;;;;;;4.12;100.00;96223.06;5010519;28;104998;-64
2023/03/27 12:00:24;;;;;;;8.97;5.27;;;;;;;4.31;100.00;96237.91;5003380;28;103325;-64
2023/03/27 12:03:12;;;;;;;10.63;3.97;;;;;;;4.32;100.00;96223.72;5010208;28;101964;-64